Latest Weather Observations for Ngukurr AWS

IDD60801

Issued at 11:31 pm CST Sunday 17 February 2019 (issued every 10 minutes, with the page automatically refreshed every 10 minutes)

About weather observations | Map of weather stations | Latest weather observations for NT | Other Formats
Station Details ID: 014299 Name: NGUKURR AIRPORT Lat: -14.72 Lon: 134.75 Height: 14.46 m
Data from the previous 72 hours. | See also: Recent months at Ngukurr AWS
Date/Time
CST
Temp
°C
App
Temp
°C
Dew
Point
°C
Rel
Hum
%
Delta-T
°C
Wind Press
QNH
hPa
Press
MSL
hPa
Rain since
9am
mm
Dir  Spd
km/h
Gust
km/h
Spd
kts
Gust
kts
17/11:30pm 29.0 34.1 22.7 69 4.3 CALM 0 0 0 0 1009.4 1009.3 0.0
17/11:00pm 29.0 33.2 22.5 68 4.4 NNE 4 6 2 3 1009.4 1009.3 0.0
17/10:30pm 29.0 33.2 22.5 68 4.4 N 4 6 2 3 1009.6 1009.5 0.0
17/10:00pm 28.9 32.5 22.4 68 4.4 ENE 7 11 4 6 1009.4 1009.3 0.0
17/09:30pm 29.2 33.4 22.4 66 4.6 WNW 4 6 2 3 1008.9 1008.8 0.0
17/09:00pm 29.2 32.9 22.2 66 4.7 WNW 6 7 3 4 1008.6 1008.5 0.0
17/08:30pm 29.2 32.7 21.9 64 4.9 WNW 6 11 3 6 1008.6 1008.5 0.0
17/08:00pm 29.6 31.5 21.3 61 5.6 NW 13 24 7 13 1008.3 1008.2 0.0
17/07:30pm 30.3 32.1 19.6 52 7.0 SSE 9 15 5 8 1008.2 1008.1 0.0
17/07:00pm 28.5 31.5 22.0 68 4.4 SSE 9 13 5 7 1008.1 1008.0 0.0
17/06:30pm 29.1 31.0 21.3 62 5.2 SSE 13 22 7 12 1008.1 1008.0 0.0
17/06:00pm 29.2 31.1 22.7 68 4.4 SSE 17 26 9 14 1007.7 1007.6 0.0
17/05:30pm 29.1 30.4 22.6 68 4.4 SE 20 33 11 18 1007.1 1007.0 0.0
17/05:08pm 33.8 35.7 20.6 46 8.8 NE 11 44 6 24 1007.0 1006.9 0.0
17/05:00pm 35.2 37.2 19.1 38 10.6 N 7 11 4 6 1006.2 1006.1 0.0
17/04:30pm 35.5 37.4 19.8 39 10.5 N 9 15 5 8 1006.2 1006.1 0.0
17/04:00pm 35.8 37.5 19.3 38 10.9 NNW 9 19 5 10 1006.4 1006.3 0.0
17/03:30pm 36.9 38.6 19.4 36 11.7 WNW 9 19 5 10 1007.0 1006.9 0.0
17/03:00pm 36.8 39.7 21.0 40 10.7 NW 7 11 4 6 1007.2 1007.1 0.0
17/02:30pm 36.9 40.0 21.5 41 10.5 NW 7 13 4 7 1007.6 1007.5 0.0
17/02:00pm 36.5 38.8 20.7 39 10.7 W 9 17 5 9 1008.5 1008.4 0.0
17/01:30pm 35.8 37.7 20.5 41 10.3 WNW 11 20 6 11 1009.3 1009.2 0.0
17/01:00pm 35.4 37.6 20.5 41 10.0 WNW 9 19 5 10 1009.9 1009.8 0.0
17/12:30pm 35.6 38.7 21.5 44 9.6 W 7 13 4 7 1010.5 1010.4 0.0
17/12:00pm 35.3 37.3 20.8 42 9.8 NW 11 19 6 10 1010.9 1010.8 0.0
17/11:30am 34.3 37.7 22.0 48 8.4 WNW 7 15 4 8 1011.4 1011.3 0.0
17/11:00am 33.6 36.8 21.7 49 8.1 NW 7 13 4 7 1011.7 1011.6 0.0
17/10:30am 33.4 37.3 22.5 52 7.5 WNW 6 9 3 5 1012.1 1012.0 0.0
17/10:00am 32.3 35.8 22.1 55 6.9 WNW 7 13 4 7 1012.2 1012.1 0.0
17/09:30am 31.8 35.5 22.5 58 6.4 W 7 13 4 7 1012.2 1012.1 0.0
17/09:00am 30.3 33.8 21.9 60 5.7 WNW 6 9 3 5 1012.0 1011.9 0.2
17/08:30am 30.1 33.9 22.8 65 5.0 W 7 13 4 7 1011.8 1011.7 0.2
17/08:00am 29.1 33.0 22.6 68 4.4 WNW 6 7 3 4 1011.4 1011.3 0.2
17/07:30am 27.9 32.5 23.1 75 3.3 NNW 4 7 2 4 1010.7 1010.6 0.2
17/07:00am 26.8 32.1 23.1 80 2.5 CALM 0 0 0 0 1010.4 1010.3 0.2
17/06:30am 26.5 31.0 23.0 81 2.4 N 4 6 2 3 1009.9 1009.8 0.2
17/06:00am 26.7 31.7 23.2 81 2.4 NNW 2 6 1 3 1009.6 1009.5 0.2
17/05:30am 27.2 31.9 22.6 76 3.1 NW 2 2 1 1 1009.4 1009.3 0.2
17/05:00am 27.4 31.8 22.8 76 3.1 NW 4 7 2 4 1009.0 1008.9 0.2
17/04:30am 27.7 31.8 22.9 75 3.3 NNW 6 9 3 5 1008.5 1008.4 0.2
17/04:00am 28.1 32.5 22.8 73 3.6 N 4 7 2 4 1008.2 1008.1 0.2
17/03:30am 27.9 32.1 23.1 75 3.3 NNW 6 9 3 5 1008.3 1008.2 0.2
17/03:00am 28.1 32.1 22.8 73 3.6 N 6 7 3 4 1008.5 1008.4 0.2
17/02:30am 28.2 33.0 22.9 73 3.6 N 2 2 1 1 1008.9 1008.8 0.2
17/02:00am 28.3 32.7 22.8 72 3.7 N 4 6 2 3 1009.2 1009.1 0.2
17/01:30am 28.5 33.0 23.0 72 3.8 N 4 6 2 3 1009.5 1009.4 0.2
17/01:00am 29.1 33.1 22.8 69 4.3 N 6 7 3 4 1009.7 1009.6 0.2
17/12:30am 29.4 33.5 22.9 68 4.4 N 6 7 3 4 1010.0 1009.9 0.2
17/12:00am 29.6 33.7 23.3 69 4.3 NNE 7 11 4 6 1010.4 1010.3 0.2
 
Date/Time
CST
Temp
°C
App
Temp
°C
Dew
Point
°C
Rel
Hum
%
Delta-T
°C
Wind Press
QNH
hPa
Press
MSL
hPa
Rain since
9am
mm
Dir  Spd
km/h
Gust
km/h
Spd
kts
Gust
kts
16/11:30pm 29.4 33.8 23.4 70 4.1 NNE 6 7 3 4 1010.7 1010.6 0.2
16/11:00pm 29.9 34.5 23.1 67 4.7 ENE 4 6 2 3 1010.9 1010.8 0.2
16/10:30pm 30.0 34.5 22.9 65 4.9 NE 4 6 2 3 1010.8 1010.7 0.2
16/10:00pm 30.5 35.0 22.9 64 5.2 NE 4 6 2 3 1010.4 1010.3 0.2
16/09:30pm 30.7 35.6 23.1 64 5.2 NE 2 4 1 2 1010.4 1010.3 0.2
16/09:00pm 30.7 35.9 23.6 66 4.9 ENE 2 4 1 2 1010.1 1010.0 0.2
16/08:30pm 31.6 35.6 22.0 56 6.5 ENE 4 6 2 3 1009.7 1009.6 0.2
16/08:00pm 32.3 34.8 21.8 54 7.1 ENE 11 15 6 8 1009.5 1009.4 0.2
16/07:30pm 32.8 35.7 21.0 50 7.9 E 7 13 4 7 1008.9 1008.8 0.2
16/07:00pm 32.7 35.6 19.9 46 8.5 SE 4 6 2 3 1008.1 1008.0 0.2
16/06:30pm 34.2 35.4 18.3 39 10.4 NE 9 15 5 8 1007.7 1007.6 0.2
16/06:00pm 35.0 36.1 18.1 36 11.0 NNE 9 15 5 8 1007.3 1007.2 0.2
16/05:30pm 36.9 40.0 20.2 37 11.2 E 4 13 2 7 1006.6 1006.5 0.2
16/05:00pm 37.1 39.0 18.6 33 12.2 SE 6 11 3 6 1006.6 1006.5 0.2
16/04:30pm 37.2 39.6 18.7 33 12.2 SE 4 6 2 3 1007.0 1006.9 0.2
16/04:00pm 37.2 39.2 18.7 33 12.2 S 6 9 3 5 1007.3 1007.2 0.2
16/03:30pm 37.2 38.7 17.7 31 12.7 SE 6 9 3 5 1007.6 1007.5 0.2
16/03:00pm 36.9 39.2 19.8 36 11.5 SSE 7 13 4 7 1008.1 1008.0 0.2
16/02:30pm 36.8 39.1 20.6 39 11.0 ENE 9 17 5 9 1008.7 1008.6 0.2
16/02:00pm 36.8 40.8 21.4 41 10.5 NNE 2 6 1 3 1009.1 1009.0 0.2
16/01:30pm 35.9 39.1 20.6 41 10.3 W 4 7 2 4 1009.7 1009.6 0.2
16/01:00pm 35.9 39.7 21.7 43 9.7 NNE 4 7 2 4 1010.4 1010.3 0.2
16/12:30pm 35.3 39.4 22.3 47 8.9 SSW 4 9 2 5 1010.8 1010.7 0.2
16/12:00pm 34.8 39.4 22.5 48 8.5 SSW 2 6 1 3 1011.3 1011.2 0.2
16/11:30am 34.0 38.9 23.7 55 7.2 W 4 7 2 4 1011.9 1011.8 0.2
16/11:00am 33.5 38.6 24.1 58 6.6 SE 4 9 2 5 1012.3 1012.2 0.2
16/10:30am 33.1 38.7 24.3 60 6.2 SSW 2 4 1 2 1012.6 1012.5 0.2
16/10:00am 31.7 37.3 24.3 65 5.2 WSW 2 4 1 2 1012.9 1012.8 0.0
16/09:30am 30.4 35.7 25.0 73 3.8 N 6 7 3 4 1012.9 1012.8 0.0
16/09:00am 29.4 34.9 24.7 76 3.3 NNE 4 6 2 3 1012.8 1012.7 0.0
16/08:30am 29.1 35.1 24.9 78 2.9 ENE 2 4 1 2 1012.8 1012.7 0.0
16/08:00am 28.0 33.4 25.2 85 2.0 N 6 7 3 4 1012.2 1012.1 0.0
16/07:30am 27.6 34.2 26.4 93 0.9 N 4 6 2 3 1012.0 1011.9 0.0
16/07:00am 27.4 34.9 27.1 98 0.2 NNE 2 4 1 2 1011.6 1011.5 0.0
16/06:30am 27.1 34.4 26.8 98 0.2 N 2 2 1 1 1011.6 1011.5 0.0
16/06:00am 27.3 34.3 27.0 98 0.2 N 4 4 2 2 1011.2 1011.1 0.0
16/05:30am 27.4 34.6 26.2 93 0.9 CALM 0 0 0 0 1011.2 1011.1 0.0
16/05:00am 27.8 34.4 25.2 86 1.8 CALM 0 2 0 1 1010.9 1010.8 0.0
16/04:30am 27.9 33.8 25.3 86 1.8 SE 4 6 2 3 1010.8 1010.7 0.0
16/04:00am 27.8 34.3 26.2 91 1.1 SE 4 6 2 3 1010.8 1010.7 0.0
16/03:30am 28.0 35.1 26.0 89 1.4 CALM 0 0 0 0 1010.6 1010.5 0.0
16/03:00am 28.0 34.5 25.0 84 2.1 CALM 0 0 0 0 1011.1 1011.0 0.0
16/02:30am 28.3 34.4 25.1 83 2.2 WSW 2 6 1 3 1011.3 1011.2 0.0
16/02:00am 28.2 34.9 25.4 85 2.0 CALM 0 0 0 0 1011.7 1011.6 0.0
16/01:30am 28.3 34.6 25.3 84 2.1 WSW 2 7 1 4 1011.6 1011.5 0.0
16/01:00am 28.5 34.9 25.5 84 2.1 W 2 4 1 2 1012.0 1011.9 0.0
16/12:30am 28.6 34.3 25.6 84 2.1 WSW 6 9 3 5 1012.0 1011.9 0.0
16/12:00am 28.8 35.5 25.4 82 2.4 CALM 0 0 0 0 1011.8 1011.7 0.0
 
Date/Time
CST
Temp
°C
App
Temp
°C
Dew
Point
°C
Rel
Hum
%
Delta-T
°C
Wind Press
QNH
hPa
Press
MSL
hPa
Rain since
9am
mm
Dir  Spd
km/h
Gust
km/h
Spd
kts
Gust
kts
15/11:30pm 28.7 35.1 26.1 86 1.8 N 4 6 2 3 1011.8 1011.7 0.0
15/11:00pm 28.5 35.3 26.1 87 1.7 N 2 4 1 2 1011.9 1011.8 0.0
15/10:30pm 28.6 35.7 26.0 86 1.8 CALM 0 0 0 0 1012.1 1012.0 0.0
15/10:00pm 28.5 34.9 25.5 84 2.1 NE 2 2 1 1 1012.0 1011.9 0.0
15/09:30pm 28.3 35.2 25.7 86 1.8 CALM 0 0 0 0 1011.6 1011.5 0.0
15/09:00pm 28.5 34.6 24.5 79 2.8 CALM 0 0 0 0 1011.0 1010.9 0.0
15/08:30pm 28.5 33.8 24.3 78 2.9 SE 4 4 2 2 1010.8 1010.7 0.0
15/08:00pm 28.6 33.6 23.9 75 3.2 SE 4 7 2 4 1010.9 1010.8 0.0
15/07:30pm 28.9 34.1 24.2 76 3.3 ESE 4 7 2 4 1010.6 1010.5 0.0
15/07:00pm 29.2 34.3 23.4 71 4.0 N 2 6 1 3 1010.1 1010.0 0.0
15/06:30pm 29.3 34.7 23.3 70 4.1 CALM 0 0 0 0 1009.5 1009.4 0.0
15/06:00pm 29.3 33.5 22.5 67 4.6 E 4 6 2 3 1008.9 1008.8 0.0
15/05:30pm 29.3 32.3 22.0 64 4.9 N 9 13 5 7 1008.5 1008.4 0.0
15/05:00pm 28.4 30.1 22.4 70 4.1 NE 17 28 9 15 1008.6 1008.5 0.0
15/04:30pm 32.0 30.0 19.9 48 8.0 E 30 43 16 23 1008.7 1008.6 0.0
15/04:28pm 32.7 31.4 19.9 46 8.5 E 26 43 14 23 1008.7 1008.6 0.0
15/04:00pm 37.2 40.4 21.3 39 10.8 S 6 9 3 5 1008.2 1008.1 0.0
15/03:30pm 37.3 40.4 21.0 38 11.1 S 6 9 3 5 1008.2 1008.1 0.0
15/03:00pm 37.1 40.4 20.8 38 11.1 SW 4 13 2 7 1008.6 1008.5 0.0
15/02:30pm 36.8 40.2 21.0 40 10.7 S 4 7 2 4 1008.7 1008.6 0.0
15/02:00pm 36.2 39.4 21.2 41 10.2 E 6 11 3 6 1009.6 1009.5 0.0
15/01:30pm 36.4 39.5 21.0 40 10.5 SW 6 11 3 6 1010.1 1010.0 0.0
15/01:00pm 35.5 38.7 21.7 44 9.4 NNW 7 17 4 9 1010.5 1010.4 0.0
15/12:30pm 35.0 38.8 21.6 45 9.1 NW 4 9 2 5 1011.2 1011.1 0.0
15/12:00pm 34.9 39.0 22.9 49 8.3 NW 6 9 3 5 1011.8 1011.7 0.0
15/11:30am 34.0 38.2 22.4 50 8.0 NNW 4 7 2 4 1012.2 1012.1 0.0
15/11:00am 33.0 36.6 21.2 50 8.0 N 4 7 2 4 1012.6 1012.5 0.0
15/10:30am 32.9 37.6 22.7 55 7.0 ESE 2 4 1 2 1012.8 1012.7 0.0
15/10:00am 32.0 36.2 22.4 57 6.6 ENE 4 7 2 4 1012.8 1012.7 0.0
15/09:30am 31.1 35.4 22.7 61 5.7 ESE 4 7 2 4 1012.7 1012.6 0.0
15/09:00am 29.8 33.7 22.5 65 5.0 ESE 6 9 3 5 1012.5 1012.4 0.0
15/08:30am 29.2 33.6 23.4 71 4.0 SE 6 7 3 4 1012.3 1012.2 0.0
15/08:00am 27.6 32.2 23.8 80 2.6 ESE 6 9 3 5 1012.3 1012.2 0.0
15/07:30am 26.3 32.6 24.7 91 1.1 CALM 0 0 0 0 1011.7 1011.6 0.0
15/07:00am 25.0 31.3 24.7 98 0.2 CALM 0 0 0 0 1011.3 1011.2 0.0
15/06:30am 24.7 30.8 24.4 98 0.2 CALM 0 0 0 0 1011.0 1010.9 0.0
15/06:00am 24.5 29.7 24.2 98 0.2 SSW 4 7 2 4 1010.5 1010.4 0.0
15/05:30am 24.5 30.5 24.2 98 0.2 CALM 0 0 0 0 1009.9 1009.8 0.0
15/05:00am 24.5 30.5 24.2 98 0.2 CALM 0 0 0 0 1009.5 1009.4 0.0
15/04:30am 24.8 30.6 23.9 95 0.6 CALM 0 0 0 0 1009.1 1009.0 0.0
15/04:00am 25.4 30.5 23.3 88 1.4 NW 2 4 1 2 1008.7 1008.6 0.0
15/03:30am 25.9 30.2 22.6 82 2.2 WNW 4 6 2 3 1008.7 1008.6 0.0
15/03:00am 26.0 30.0 22.7 82 2.2 WNW 6 7 3 4 1008.9 1008.8 0.0
15/02:30am 26.1 31.3 23.6 86 1.7 NW 2 4 1 2 1009.3 1009.2 0.0
15/02:00am 26.4 31.6 23.5 84 2.0 WNW 2 6 1 3 1009.6 1009.5 0.0
15/01:30am 26.5 32.1 24.3 88 1.5 WNW 2 4 1 2 1009.9 1009.8 0.0
15/01:00am 27.0 31.4 22.8 78 2.8 NW 4 4 2 2 1010.4 1010.3 0.0
15/12:30am 27.2 32.5 23.7 81 2.4 N 2 4 1 2 1010.6 1010.5 0.0
15/12:00am 27.3 32.1 23.5 80 2.6 NNW 4 7 2 4 1010.5 1010.4 0.0

Other Formats:

Comma delimited format used in spreadsheet applications
http://www.bom.gov.au/fwo/IDD60801/IDD60801.94106.axf

JavaScript Object Notation format (JSON) in row-major order
http://www.bom.gov.au/fwo/IDD60801/IDD60801.94106.json